Onondaga Nation, New York
Current Conditions -  °F | °C
As of 5:54 AM on Sunday 23 Nov 2014 (Local Time) from KSYR Reporting Station
Overcast Overcast  
Wind Chill: 44°   Ceiling: 3800
Heat Index: 48°   Visibility: 10mi
Dew Point: 40°   Wind: 8mph
Humidity: 74%   Direction: 200°SSW
Pressure: 30.03"   Gusts: NA
Location:  42.9377°N, 76.1727°W
Report Text: KSYR 231054Z 20007KT 10SM FEW029 OVC038 09/04 A3003 RMK AO2 DZB16E39 SLP168 P0000 T00890044 $
Loading
Personal Weather Stations






























Interactive Weather Map New forecast layout! Learn more

10-Day Weather Forecast

Advertisements
Track Severe Weather on mobile